NCAR-RAP Real-Time Weather Data

Output produced by METARs form (10 April 2020  07:17 UTC)
found at http://weather.rap.ucar.edu/surface/
 
KTYR 100653Z AUTO 01004KT 10SM CLR 18/13 A2998 RMK AO2 SLP146 T01780128
KTYR 100553Z AUTO 07003KT 10SM FEW110 18/13 A2998 RMK AO2 SLP146 60000 T01830133 10200 20183 402830183 51016
KTYR 100453Z AUTO 03004KT 10SM FEW110 19/14 A2998 RMK AO2 SLP144 T01890144
KTYR 100353Z AUTO 09003KT 10SM OVC110 19/14 A2996 RMK AO2 SLP139 T01940144
KTYR 100253Z AUTO 02003KT 10SM FEW041 SCT120 19/14 A2994 RMK AO2 SLP130 60000 T01940144 53020
KTYR 100153Z 07003KT 10SM FEW110 20/15 A2992 RMK AO2 SLP125 T02000150
KTYR 100053Z 05007KT 10SM CLR 20/16 A2984 RMK AO2 RAE25 SLP099 P0000 T02000156
KTYR 092353Z 00000KT 10SM -RA FEW060 SCT075 BKN100 20/16 A2987 RMK AO2 RAE03B33 SLP111 P0000 60001 T02000161 10283 20200 58003
KTYR 092253Z 35007KT 10SM -RA OVC110 21/17 A2988 RMK AO2 SLP113 P0000 T02060172
KTYR 092153Z 36005KT 10SM -RA OVC110 21/17 A2988 RMK AO2 TSB31E46 SLP113 P0001 T02110167
KTYR 092137Z 34009KT 10SM -TSRA OVC110 22/17 A2988 RMK AO2 LTG DSNT S AND SW TSB31 P0000 T02170167
KTYR 092053Z 02008KT 10SM -RA SCT033 SCT046 BKN110 24/17 A2986 RMK AO2 RAB27 SLP103 P0000 60000 T02440167 56010
KTYR 091953Z 05009KT 10SM BKN033 27/18 A2986 RMK AO2 SLP102 T02670178
KTYR 091853Z 07009KT 10SM FEW034 28/19 A2986 RMK AO2 SLP104 T02830189
KTYR 091753Z 05008KT 10SM CLR 28/18 A2989 RMK AO2 SLP113 T02780178 10283 20222 50002
KTYR 091653Z 07012KT 10SM CLR 28/17 A2989 RMK AO2 SLP114 T02780167
KTYR 091553Z 09012G19KT 10SM CLR 27/17 A2990 RMK AO2 SLP117 T02720172
KTYR 091453Z 08009KT 10SM CLR 26/18 A2988 RMK AO2 SLP111 T02560183 52013
KTYR 091353Z 07009KT 10SM CLR 23/18 A2987 RMK AO2 SLP108 T02330183
KTYR 091253Z 04005KT 3SM BR CLR 23/21 A2985 RMK AO2 SLP103 T02280206
KTYR 091213Z 03004KT 1SM BR CLR 22/21 A2985 RMK AO2 T02220211
KTYR 091153Z 03004KT 1SM BR VV008 23/21 A2984 RMK AO2 SLP098 T02280211 10244 20217 50006
KTYR 091150Z 03004KT 6SM BR SCT007 23/22 A2984 RMK AO2
KTYR 091142Z 36004KT 5SM BR BKN007 23/22 A2985 RMK AO2 T02280217
KTYR 091134Z 36005KT 5SM BR SCT009 23/22 A2985 RMK AO2 T02280217
KTYR 091053Z AUTO 00000KT 9SM CLR 23/22 A2983 RMK AO2 SLP094 T02330217
KTYR 091017Z AUTO 19006KT 8SM SCT015 23/22 A2982 RMK AO2 T02280217
KTYR 090953Z AUTO 00000KT 8SM BKN012 23/22 A2983 RMK AO2 SLP091 T02330222
KTYR 090946Z AUTO 34005KT 9SM BKN010 24/22 A2983 RMK AO2 T02390222
KTYR 090853Z AUTO 22006KT 10SM CLR 24/22 A2980 RMK AO2 SLP083 T02440222 56012